createdAt,value
2018-07-05T03:06:26.238Z,90.15
2018-07-05T03:07:05.001Z,89.58
2018-07-05T03:12:05.251Z,90.05
2018-07-05T03:15:03.145Z,89.76
2018-07-05T03:16:18.100Z,89.86
2018-07-05T03:27:57.626Z,89.86
2018-07-05T03:29:07.362Z,89.58
2018-07-05T03:32:48.456Z,89.86
2018-07-05T03:33:41.281Z,89.95
2018-07-05T03:35:13.684Z,89.86
2018-07-05T03:35:31.387Z,89.86
2018-07-05T03:37:52.401Z,89.76
2018-07-05T03:38:34.108Z,90.34
2018-07-05T03:39:05.072Z,90.15
2018-07-05T03:40:51.395Z,89.86
2018-07-05T03:42:08.811Z,90.86
2018-07-05T03:43:06.180Z,90.77
2018-07-05T03:44:38.256Z,90.09
2018-07-05T03:46:37.060Z,90.00
2018-07-05T03:48:56.369Z,89.48
2018-07-05T03:49:35.624Z,89.67
2018-07-05T03:50:37.879Z,89.58
2018-07-05T03:51:37.322Z,89.58
2018-07-05T03:52:31.445Z,90.34
2018-07-05T03:56:41.424Z,90.15
2018-07-05T03:57:21.874Z,90.15
2018-07-05T03:58:21.925Z,89.58
2018-07-05T04:01:54.830Z,89.38
2018-07-05T04:02:54.401Z,89.58
2018-07-05T04:04:05.588Z,89.48
2018-07-05T04:14:58.946Z,91.53
2018-07-05T05:49:18.768Z,84.21
2018-07-05T05:55:35.694Z,83.58
2018-07-05T05:56:22.768Z,83.29
2018-07-05T06:58:41.793Z,69.98
2018-07-05T06:59:42.207Z,69.59
2018-07-05T07:00:42.176Z,69.75
2018-07-05T07:01:41.752Z,68.73
2018-07-05T07:02:41.541Z,68.82
2018-07-05T07:03:45.691Z,68.53
2018-07-05T07:04:44.382Z,68.24
2018-07-05T07:05:43.951Z,68.33
2018-07-05T07:06:42.080Z,68.24
2018-07-05T07:07:42.619Z,67.40
2018-07-05T07:08:42.237Z,67.21
2018-07-05T07:09:41.928Z,67.11
2018-07-05T07:10:43.161Z,67.21
2018-07-05T07:11:43.536Z,67.60
2018-07-05T07:12:41.884Z,67.05
2018-07-05T07:13:39.789Z,67.14
2018-07-05T07:14:40.094Z,67.24
2018-07-05T07:15:42.872Z,66.75
2018-07-05T07:16:40.449Z,65.98
2018-07-05T08:12:12.913Z,60.54
2018-07-05T08:13:12.868Z,60.64
2018-07-05T08:14:12.334Z,60.74
2018-07-05T08:16:25.225Z,59.67
2018-07-05T08:17:12.746Z,57.95
2018-07-05T08:18:13.333Z,57.65
2018-07-05T08:19:13.865Z,58.26
2018-07-05T08:20:14.236Z,57.61
2018-07-05T08:21:16.424Z,55.86
2018-07-05T08:22:13.590Z,55.37
2018-07-05T08:23:12.521Z,55.60
2018-07-05T08:24:11.495Z,54.52
2018-07-05T08:25:11.743Z,55.01
2018-07-05T08:26:11.824Z,53.97
2018-07-05T08:27:12.005Z,53.11
2018-07-05T08:28:12.151Z,52.66
2018-07-05T08:29:12.310Z,51.61
2018-07-05T08:30:12.572Z,50.07
2018-07-05T08:31:12.695Z,49.80
2018-07-05T08:32:12.915Z,50.78
2018-07-05T08:33:13.074Z,49.80
2018-07-05T08:34:13.304Z,48.09
2018-07-05T08:35:13.419Z,47.11
2018-07-05T08:36:13.658Z,46.26
2018-07-05T08:37:13.852Z,45.89
2018-07-05T08:38:13.910Z,45.59
2018-07-05T08:39:14.142Z,45.91
2018-07-05T08:40:14.361Z,46.01
2018-07-05T08:41:14.526Z,45.23
2018-07-05T08:42:14.648Z,45.81
2018-07-05T08:43:14.826Z,45.40
2018-07-05T08:44:14.952Z,45.86
2018-07-05T08:45:16.797Z,46.16
2018-07-05T08:46:16.589Z,44.91
2018-07-05T08:47:15.756Z,45.20
2018-07-05T08:48:16.333Z,45.30
2018-07-05T08:49:16.128Z,45.89
2018-07-05T08:50:16.193Z,44.91
2018-07-05T08:51:16.570Z,45.86
2018-07-05T08:52:16.584Z,45.16
2018-07-05T08:53:16.807Z,46.23
2018-07-05T08:54:17.022Z,46.43
2018-07-05T08:55:17.591Z,46.23
2018-07-05T08:56:17.379Z,45.75
2018-07-05T08:57:17.513Z,45.72
2018-07-05T08:58:17.915Z,45.62
2018-07-05T08:59:17.987Z,45.82
2018-07-05T09:00:18.089Z,46.21
2018-07-05T09:01:18.239Z,45.92
2018-07-05T09:02:18.530Z,46.60
2018-07-05T09:03:18.625Z,47.17
2018-07-05T09:04:18.847Z,47.56
2018-07-05T09:05:19.140Z,47.63
2018-07-05T09:06:19.207Z,48.02
2018-07-05T09:07:19.427Z,48.12
2018-07-05T09:08:19.664Z,48.58
2018-07-05T09:09:19.839Z,48.32
2018-07-05T09:10:19.993Z,48.39
2018-07-05T09:11:20.193Z,49.37
2018-07-05T09:12:20.370Z,49.27
2018-07-05T09:13:20.623Z,49.54
2018-07-05T09:14:20.586Z,48.36
2018-07-05T09:15:20.817Z,49.44
2018-07-05T09:16:21.050Z,50.21
2018-07-05T09:17:21.278Z,50.41
2018-07-05T09:18:21.394Z,49.80
2018-07-05T09:19:21.532Z,49.34
2018-07-05T09:20:21.712Z,49.34
2018-07-05T09:21:21.933Z,49.63
2018-07-05T09:22:22.048Z,48.27
2018-07-05T09:23:22.278Z,49.54
2018-07-05T09:24:22.410Z,49.63
2018-07-05T09:25:22.543Z,50.31
2018-07-05T09:26:22.732Z,50.02
2018-07-05T09:27:23.006Z,49.80
2018-07-05T09:28:23.146Z,49.44
2018-07-05T09:29:23.427Z,48.54
2018-07-05T09:30:23.456Z,49.41
2018-07-05T09:31:23.667Z,49.32
2018-07-05T09:32:23.942Z,49.99
2018-07-05T09:33:24.023Z,49.99
2018-07-05T09:34:26.201Z,49.80
2018-07-05T09:35:24.714Z,50.26
2018-07-05T09:36:25.209Z,50.46
2018-07-05T09:37:25.002Z,51.04
2018-07-05T09:38:25.318Z,51.73
2018-07-05T11:11:33.839Z,32.17
2018-07-05T12:07:10.124Z,36.54
2018-07-05T12:23:16.551Z,40.58
2018-07-05T12:24:17.098Z,41.44
2018-07-05T12:25:18.097Z,42.21
2018-07-05T12:26:16.082Z,43.07
2018-07-05T12:27:15.496Z,43.85
2018-07-05T12:28:14.291Z,44.92
2018-07-05T12:29:14.618Z,44.38
2018-07-05T12:30:14.698Z,45.46
2018-07-05T12:31:14.918Z,46.12
2018-07-05T12:32:15.148Z,46.61
2018-07-05T12:33:15.283Z,46.02
2018-07-05T12:34:15.520Z,47.75
2018-07-05T12:35:15.771Z,47.56
2018-07-05T12:36:16.356Z,47.66
2018-07-05T12:37:16.291Z,47.56
2018-07-05T12:38:18.031Z,48.34
2018-07-05T12:39:16.963Z,48.51
2018-07-05T12:40:16.737Z,49.00
2018-07-05T12:41:16.832Z,49.10
2018-07-05T12:42:17.057Z,48.49
2018-07-05T12:43:17.345Z,49.07
2018-07-05T12:44:17.234Z,49.37
2018-07-05T12:45:17.448Z,48.49
2018-07-05T12:46:17.651Z,49.05
2018-07-05T12:47:17.750Z,48.95
2018-07-05T12:48:17.957Z,49.05
2018-07-05T12:49:18.936Z,49.44
2018-07-05T12:50:18.520Z,49.44
2018-07-05T12:51:19.931Z,49.24
2018-07-05T12:52:18.832Z,49.90
2018-07-05T12:53:19.460Z,50.09
2018-07-05T12:54:19.753Z,50.29
2018-07-05T12:55:19.680Z,50.38
2018-07-05T12:56:19.594Z,50.78
2018-07-05T12:57:20.761Z,51.07
2018-07-05T12:58:19.969Z,51.48
2018-07-05T12:59:20.746Z,50.99
2018-07-05T13:00:20.799Z,51.45
2018-07-05T13:01:20.878Z,51.29
2018-07-05T13:02:22.313Z,51.39
2018-07-05T13:03:21.127Z,51.39
2018-07-05T13:04:21.925Z,50.99
2018-07-05T13:05:21.439Z,50.99
2018-07-05T13:06:21.879Z,51.48
2018-07-05T13:07:21.699Z,51.26
2018-07-05T13:08:21.831Z,51.84
2018-07-05T13:09:21.862Z,51.07
2018-07-05T13:10:22.251Z,51.65
2018-07-05T13:11:22.212Z,51.94
2018-07-05T13:12:22.584Z,51.94
2018-07-05T13:16:10.131Z,51.36
2018-07-05T13:17:16.214Z,51.94
2018-07-05T13:28:02.606Z,46.10
2018-07-05T13:29:18.630Z,46.30
2018-07-05T13:30:10.821Z,46.12
2018-07-05T13:31:08.385Z,46.12
2018-07-05T13:33:10.161Z,45.90
2018-07-05T13:34:04.002Z,45.90
2018-07-05T13:35:02.654Z,45.90
2018-07-05T13:36:01.610Z,46.78
2018-07-05T13:37:01.807Z,46.10
2018-07-05T13:38:02.141Z,46.31
2018-07-05T13:39:02.070Z,46.49
2018-07-05T13:40:02.398Z,46.30
2018-07-05T13:41:02.463Z,46.30
2018-07-05T13:42:02.694Z,46.39
2018-07-05T13:43:02.908Z,46.69
2018-07-05T13:44:02.980Z,47.56
2018-07-05T13:45:03.269Z,47.75
2018-07-05T13:46:03.431Z,47.56
2018-07-05T13:47:03.770Z,47.44
2018-07-05T13:48:03.765Z,48.12
2018-07-05T13:49:03.955Z,48.32
2018-07-05T13:50:04.747Z,49.19
2018-07-05T13:51:05.315Z,48.41
2018-07-05T13:52:04.569Z,48.51
2018-07-05T13:53:04.802Z,48.51
2018-07-05T13:54:04.936Z,49.19
2018-07-05T13:55:05.282Z,49.49
2018-07-05T13:56:05.189Z,50.07
2018-07-05T13:57:05.542Z,49.68
2018-07-05T13:58:05.541Z,49.19
2018-07-05T13:59:05.731Z,49.27
2018-07-05T14:00:05.907Z,49.78
2018-07-05T14:01:06.214Z,50.07
2018-07-05T14:02:06.380Z,49.68
2018-07-05T14:03:06.624Z,49.61
2018-07-05T14:04:06.695Z,49.32
2018-07-05T14:05:07.127Z,49.41
2018-07-05T14:06:07.275Z,49.71
2018-07-05T14:07:07.362Z,49.93
2018-07-05T14:08:07.558Z,49.44
2018-07-05T14:09:07.871Z,49.07
2018-07-05T14:10:08.703Z,48.58
2018-07-05T14:11:07.999Z,48.12
2018-07-05T14:12:08.226Z,48.32
2018-07-05T14:13:08.481Z,47.66
2018-07-05T14:14:08.556Z,47.67
2018-07-05T14:15:08.949Z,46.11
2018-07-05T14:16:09.060Z,45.67
2018-07-05T14:17:09.079Z,44.69
2018-07-05T14:18:09.272Z,44.23
2018-07-05T14:19:09.590Z,43.95
2018-07-05T14:20:09.747Z,43.46
2018-07-05T14:21:10.200Z,43.27
2018-07-05T14:22:09.899Z,42.58
2018-07-05T14:23:10.112Z,42.50
2018-07-05T14:24:10.367Z,42.41
2018-07-05T14:25:10.607Z,39.86
2018-07-05T14:26:10.770Z,39.76
2018-07-05T14:27:10.837Z,40.06
2018-07-05T14:28:11.946Z,41.52
2018-07-05T14:29:12.470Z,42.60
2018-07-05T14:30:11.925Z,42.68
2018-07-05T14:31:12.100Z,42.38
2018-07-05T14:32:12.053Z,41.41
2018-07-05T14:33:12.399Z,42.66
2018-07-05T14:34:12.102Z,40.90
2018-07-05T14:35:14.074Z,41.56
2018-07-05T14:36:12.970Z,40.86
2018-07-05T14:47:10.287Z,42.46
2018-07-05T14:48:08.923Z,42.94
2018-07-05T14:51:38.644Z,42.73
2018-07-05T14:55:18.038Z,43.66
2018-07-05T14:58:29.549Z,44.15
2018-07-05T15:08:16.421Z,45.20
2018-07-05T15:10:31.946Z,44.32
2018-07-05T16:12:05.787Z,53.32
2018-07-05T16:15:03.493Z,54.00
2018-07-05T16:17:11.323Z,53.81
2018-07-05T19:30:58.821Z,66.40
2018-07-05T19:31:58.978Z,66.30
2018-07-05T19:40:30.777Z,67.37
2018-07-05T20:01:10.898Z,70.10
2018-07-05T20:01:50.881Z,70.40
2018-07-05T20:02:51.772Z,70.30
2018-07-05T20:06:10.602Z,70.56
2018-07-05T20:07:04.158Z,70.65
2018-07-05T20:08:04.369Z,71.23
2018-07-05T20:09:05.336Z,71.23
2018-07-05T20:29:38.536Z,73.38
2018-07-05T20:30:47.080Z,73.48
